sensor_id;sensor_type;location;lat;lon;timestamp;temperature;humidity
27779;DHT22;30234;48.090;11.464;2023-04-25T00:00:14;6.40;99.90
27779;DHT22;30234;48.090;11.464;2023-04-25T00:04:14;6.40;99.90
27779;DHT22;30234;48.090;11.464;2023-04-25T00:08:16;6.40;99.90
27779;DHT22;30234;48.090;11.464;2023-04-25T00:12:17;6.40;99.90
27779;DHT22;30234;48.090;11.464;2023-04-25T00:16:17;6.60;99.90
27779;DHT22;30234;48.090;11.464;2023-04-25T00:20:18;6.60;99.90
27779;DHT22;30234;48.090;11.464;2023-04-25T00:24:19;6.50;99.90
27779;DHT22;30234;48.090;11.464;2023-04-25T00:28:20;6.40;99.90
27779;DHT22;30234;48.090;11.464;2023-04-25T00:32:21;6.30;99.90
27779;DHT22;30234;48.090;11.464;2023-04-25T00:36:22;6.30;99.90
27779;DHT22;30234;48.090;11.464;2023-04-25T00:40:23;6.00;99.90
27779;DHT22;30234;48.090;11.464;2023-04-25T00:44:24;5.70;99.90
27779;DHT22;30234;48.090;11.464;2023-04-25T00:48:25;5.50;99.90
27779;DHT22;30234;48.090;11.464;2023-04-25T00:52:26;5.80;99.90
27779;DHT22;30234;48.090;11.464;2023-04-25T00:56:27;5.30;99.90
27779;DHT22;30234;48.090;11.464;2023-04-25T01:00:28;5.10;99.90
27779;DHT22;30234;48.090;11.464;2023-04-25T01:04:29;5.00;99.90
27779;DHT22;30234;48.090;11.464;2023-04-25T01:08:30;5.00;99.90
27779;DHT22;30234;48.090;11.464;2023-04-25T01:12:31;5.10;99.90
27779;DHT22;30234;48.090;11.464;2023-04-25T01:16:32;5.20;99.90
27779;DHT22;30234;48.090;11.464;2023-04-25T01:20:34;5.30;99.90
27779;DHT22;30234;48.090;11.464;2023-04-25T01:24:35;5.30;99.90
27779;DHT22;30234;48.090;11.464;2023-04-25T01:28:36;5.50;99.90
27779;DHT22;30234;48.090;11.464;2023-04-25T01:32:38;5.20;99.90
27779;DHT22;30234;48.090;11.464;2023-04-25T01:36:40;5.20;99.90
27779;DHT22;30234;48.090;11.464;2023-04-25T01:40:41;5.20;99.90
27779;DHT22;30234;48.090;11.464;2023-04-25T01:44:45;5.10;99.90
27779;DHT22;30234;48.090;11.464;2023-04-25T01:48:46;4.80;99.90
27779;DHT22;30234;48.090;11.464;2023-04-25T01:52:47;4.60;99.90
27779;DHT22;30234;48.090;11.464;2023-04-25T01:56:51;4.40;99.90
27779;DHT22;30234;48.090;11.464;2023-04-25T02:00:52;4.30;99.90
27779;DHT22;30234;48.090;11.464;2023-04-25T02:04:53;4.30;99.90
27779;DHT22;30234;48.090;11.464;2023-04-25T02:08:55;4.10;99.90
27779;DHT22;30234;48.090;11.464;2023-04-25T02:12:57;4.00;99.90
27779;DHT22;30234;48.090;11.464;2023-04-25T02:16:58;4.10;99.90
27779;DHT22;30234;48.090;11.464;2023-04-25T02:20:59;4.10;99.90
27779;DHT22;30234;48.090;11.464;2023-04-25T02:25:01;4.00;99.90
27779;DHT22;30234;48.090;11.464;2023-04-25T02:29:04;4.10;99.90
27779;DHT22;30234;48.090;11.464;2023-04-25T02:33:06;4.30;99.90
27779;DHT22;30234;48.090;11.464;2023-04-25T02:37:07;4.50;99.90
27779;DHT22;30234;48.090;11.464;2023-04-25T02:41:07;4.50;99.90
27779;DHT22;30234;48.090;11.464;2023-04-25T02:45:09;4.60;99.90
27779;DHT22;30234;48.090;11.464;2023-04-25T02:49:10;4.70;99.90
27779;DHT22;30234;48.090;11.464;2023-04-25T02:53:10;4.90;99.90
27779;DHT22;30234;48.090;11.464;2023-04-25T02:57:11;5.00;99.90
27779;DHT22;30234;48.090;11.464;2023-04-25T03:01:12;5.40;99.90
27779;DHT22;30234;48.090;11.464;2023-04-25T03:05:13;5.60;99.90
27779;DHT22;30234;48.090;11.464;2023-04-25T03:09:14;6.00;99.90
27779;DHT22;30234;48.090;11.464;2023-04-25T03:13:15;6.20;99.90
27779;DHT22;30234;48.090;11.464;2023-04-25T03:17:16;6.20;99.90
27779;DHT22;30234;48.090;11.464;2023-04-25T03:21:17;6.20;99.90
27779;DHT22;30234;48.090;11.464;2023-04-25T03:25:18;6.20;99.90
27779;DHT22;30234;48.090;11.464;2023-04-25T03:29:19;6.20;99.90
27779;DHT22;30234;48.090;11.464;2023-04-25T03:33:24;6.10;99.90
27779;DHT22;30234;48.090;11.464;2023-04-25T03:37:25;6.10;99.90
27779;DHT22;30234;48.090;11.464;2023-04-25T03:41:26;6.00;99.90
27779;DHT22;30234;48.090;11.464;2023-04-25T03:45:28;5.90;99.90
27779;DHT22;30234;48.090;11.464;2023-04-25T03:49:29;5.80;99.90
27779;DHT22;30234;48.090;11.464;2023-04-25T03:53:30;5.70;99.90
27779;DHT22;30234;48.090;11.464;2023-04-25T03:57:30;5.70;99.90
27779;DHT22;30234;48.090;11.464;2023-04-25T04:01:31;5.70;99.90
27779;DHT22;30234;48.090;11.464;2023-04-25T04:05:32;5.60;99.90
27779;DHT22;30234;48.090;11.464;2023-04-25T04:09:33;5.70;99.90
27779;DHT22;30234;48.090;11.464;2023-04-25T04:13:34;5.60;99.90
27779;DHT22;30234;48.090;11.464;2023-04-25T04:17:35;5.60;99.90
27779;DHT22;30234;48.090;11.464;2023-04-25T04:21:36;5.50;99.90
27779;DHT22;30234;48.090;11.464;2023-04-25T04:25:37;5.60;99.90
27779;DHT22;30234;48.090;11.464;2023-04-25T04:29:38;5.70;99.90
27779;DHT22;30234;48.090;11.464;2023-04-25T04:33:38;5.80;99.90
27779;DHT22;30234;48.090;11.464;2023-04-25T04:37:40;5.80;99.90
27779;DHT22;30234;48.090;11.464;2023-04-25T04:41:40;5.90;99.90
27779;DHT22;30234;48.090;11.464;2023-04-25T04:45:41;5.90;99.90
27779;DHT22;30234;48.090;11.464;2023-04-25T04:49:42;6.00;99.90
27779;DHT22;30234;48.090;11.464;2023-04-25T04:53:43;6.10;99.90
27779;DHT22;30234;48.090;11.464;2023-04-25T04:57:44;6.10;99.90
27779;DHT22;30234;48.090;11.464;2023-04-25T05:01:45;6.30;99.90
27779;DHT22;30234;48.090;11.464;2023-04-25T05:05:47;6.40;99.90
27779;DHT22;30234;48.090;11.464;2023-04-25T05:09:48;6.40;99.90
27779;DHT22;30234;48.090;11.464;2023-04-25T05:13:50;6.40;99.90
27779;DHT22;30234;48.090;11.464;2023-04-25T05:17:52;6.40;99.90
27779;DHT22;30234;48.090;11.464;2023-04-25T05:21:53;6.50;99.90
27779;DHT22;30234;48.090;11.464;2023-04-25T05:25:54;6.50;99.90
27779;DHT22;30234;48.090;11.464;2023-04-25T05:29:55;6.50;99.90
27779;DHT22;30234;48.090;11.464;2023-04-25T05:33:55;6.50;99.90
27779;DHT22;30234;48.090;11.464;2023-04-25T05:37:56;6.60;99.90
27779;DHT22;30234;48.090;11.464;2023-04-25T05:41:57;6.80;99.90
27779;DHT22;30234;48.090;11.464;2023-04-25T05:45:58;7.20;99.90
27779;DHT22;30234;48.090;11.464;2023-04-25T05:49:59;7.50;99.90
27779;DHT22;30234;48.090;11.464;2023-04-25T05:54:00;7.50;99.90
27779;DHT22;30234;48.090;11.464;2023-04-25T05:58:01;7.30;99.90
27779;DHT22;30234;48.090;11.464;2023-04-25T06:02:01;6.80;99.90
27779;DHT22;30234;48.090;11.464;2023-04-25T06:06:03;6.50;99.90
27779;DHT22;30234;48.090;11.464;2023-04-25T06:10:04;6.00;99.90
27779;DHT22;30234;48.090;11.464;2023-04-25T06:14:07;5.60;99.90
27779;DHT22;30234;48.090;11.464;2023-04-25T06:18:08;5.50;99.90
27779;DHT22;30234;48.090;11.464;2023-04-25T06:22:09;5.60;99.90
27779;DHT22;30234;48.090;11.464;2023-04-25T06:26:10;5.70;99.90
27779;DHT22;30234;48.090;11.464;2023-04-25T06:30:11;5.90;99.90
27779;DHT22;30234;48.090;11.464;2023-04-25T06:34:15;6.40;99.90
27779;DHT22;30234;48.090;11.464;2023-04-25T06:38:16;6.80;99.90
27779;DHT22;30234;48.090;11.464;2023-04-25T06:42:17;7.30;99.90
27779;DHT22;30234;48.090;11.464;2023-04-25T06:46:18;7.90;99.90
27779;DHT22;30234;48.090;11.464;2023-04-25T06:50:19;8.00;99.90
27779;DHT22;30234;48.090;11.464;2023-04-25T06:54:20;8.10;99.90
27779;DHT22;30234;48.090;11.464;2023-04-25T06:58:21;8.10;99.90
27779;DHT22;30234;48.090;11.464;2023-04-25T07:02:22;7.90;99.90
27779;DHT22;30234;48.090;11.464;2023-04-25T07:06:23;8.00;99.90
27779;DHT22;30234;48.090;11.464;2023-04-25T07:10:26;8.10;99.90
27779;DHT22;30234;48.090;11.464;2023-04-25T07:14:27;8.20;99.90
27779;DHT22;30234;48.090;11.464;2023-04-25T07:18:28;8.50;99.90
27779;DHT22;30234;48.090;11.464;2023-04-25T07:22:29;8.80;99.90
27779;DHT22;30234;48.090;11.464;2023-04-25T07:26:30;9.40;99.90
27779;DHT22;30234;48.090;11.464;2023-04-25T07:30:31;9.70;99.90
27779;DHT22;30234;48.090;11.464;2023-04-25T07:34:32;10.70;99.90
27779;DHT22;30234;48.090;11.464;2023-04-25T07:38:33;13.50;99.90
27779;DHT22;30234;48.090;11.464;2023-04-25T07:42:33;16.60;99.90
27779;DHT22;30234;48.090;11.464;2023-04-25T07:46:34;17.30;99.90
27779;DHT22;30234;48.090;11.464;2023-04-25T07:50:35;19.20;99.40
27779;DHT22;30234;48.090;11.464;2023-04-25T07:54:36;19.00;96.70
27779;DHT22;30234;48.090;11.464;2023-04-25T07:58:37;19.20;94.40
27779;DHT22;30234;48.090;11.464;2023-04-25T08:02:38;19.10;92.30
27779;DHT22;30234;48.090;11.464;2023-04-25T08:06:39;19.80;92.40
27779;DHT22;30234;48.090;11.464;2023-04-25T08:10:41;20.50;87.30
27779;DHT22;30234;48.090;11.464;2023-04-25T08:14:42;19.30;86.00
27779;DHT22;30234;48.090;11.464;2023-04-25T08:18:43;20.00;82.70
27779;DHT22;30234;48.090;11.464;2023-04-25T08:22:44;16.60;91.60
27779;DHT22;30234;48.090;11.464;2023-04-25T08:26:45;13.60;99.90
27779;DHT22;30234;48.090;11.464;2023-04-25T08:30:45;11.80;99.90
27779;DHT22;30234;48.090;11.464;2023-04-25T08:34:46;12.50;99.90
27779;DHT22;30234;48.090;11.464;2023-04-25T08:38:47;16.90;99.90
27779;DHT22;30234;48.090;11.464;2023-04-25T08:42:49;17.20;94.80
27779;DHT22;30234;48.090;11.464;2023-04-25T08:46:52;16.20;95.60
27779;DHT22;30234;48.090;11.464;2023-04-25T08:50:54;16.30;97.80
27779;DHT22;30234;48.090;11.464;2023-04-25T08:54:57;15.30;97.50
27779;DHT22;30234;48.090;11.464;2023-04-25T08:58:58;17.10;96.90
27779;DHT22;30234;48.090;11.464;2023-04-25T09:02:59;18.20;92.40
27779;DHT22;30234;48.090;11.464;2023-04-25T09:07:00;18.00;86.10
27779;DHT22;30234;48.090;11.464;2023-04-25T09:11:01;18.00;81.90
27779;DHT22;30234;48.090;11.464;2023-04-25T09:15:10;17.70;84.50
27779;DHT22;30234;48.090;11.464;2023-04-25T09:19:30;15.40;86.10
27779;DHT22;30234;48.090;11.464;2023-04-25T09:23:59;13.90;92.10
27779;DHT22;30234;48.090;11.464;2023-04-25T09:28:03;13.20;94.60
27779;DHT22;30234;48.090;11.464;2023-04-25T09:36:26;14.30;92.80
27779;DHT22;30234;48.090;11.464;2023-04-25T09:40:30;14.50;92.90
27779;DHT22;30234;48.090;11.464;2023-04-25T09:44:31;15.00;91.80
27779;DHT22;30234;48.090;11.464;2023-04-25T09:48:32;15.80;90.40
27779;DHT22;30234;48.090;11.464;2023-04-25T09:52:33;15.60;89.90
27779;DHT22;30234;48.090;11.464;2023-04-25T09:56:35;14.70;89.50
27779;DHT22;30234;48.090;11.464;2023-04-25T10:00:38;14.30;90.50
27779;DHT22;30234;48.090;11.464;2023-04-25T10:04:39;13.70;91.60
27779;DHT22;30234;48.090;11.464;2023-04-25T10:08:42;14.10;91.50
27779;DHT22;30234;48.090;11.464;2023-04-25T10:12:44;16.20;87.80
27779;DHT22;30234;48.090;11.464;2023-04-25T10:16:47;16.10;84.10
27779;DHT22;30234;48.090;11.464;2023-04-25T10:20:48;15.30;86.30
27779;DHT22;30234;48.090;11.464;2023-04-25T10:24:50;14.70;87.90
27779;DHT22;30234;48.090;11.464;2023-04-25T10:28:59;14.30;89.20
27779;DHT22;30234;48.090;11.464;2023-04-25T10:33:01;13.80;91.40
27779;DHT22;30234;48.090;11.464;2023-04-25T10:37:02;12.10;93.70
27779;DHT22;30234;48.090;11.464;2023-04-25T10:41:06;11.10;97.30
27779;DHT22;30234;48.090;11.464;2023-04-25T10:45:09;10.80;99.70
27779;DHT22;30234;48.090;11.464;2023-04-25T10:49:10;10.20;99.90
27779;DHT22;30234;48.090;11.464;2023-04-25T10:53:14;10.10;99.90
27779;DHT22;30234;48.090;11.464;2023-04-25T10:57:40;10.90;99.90
27779;DHT22;30234;48.090;11.464;2023-04-25T11:01:44;11.80;99.90
27779;DHT22;30234;48.090;11.464;2023-04-25T11:05:50;11.80;99.90
27779;DHT22;30234;48.090;11.464;2023-04-25T11:09:52;11.50;99.90
27779;DHT22;30234;48.090;11.464;2023-04-25T11:13:53;10.90;99.90
27779;DHT22;30234;48.090;11.464;2023-04-25T11:17:54;10.70;99.90
27779;DHT22;30234;48.090;11.464;2023-04-25T11:22:01;10.20;99.90
27779;DHT22;30234;48.090;11.464;2023-04-25T11:26:03;9.80;99.90
27779;DHT22;30234;48.090;11.464;2023-04-25T11:30:12;9.60;99.90
27779;DHT22;30234;48.090;11.464;2023-04-25T11:34:18;8.90;99.90
27779;DHT22;30234;48.090;11.464;2023-04-25T11:38:19;8.80;99.90
27779;DHT22;30234;48.090;11.464;2023-04-25T11:42:20;8.30;99.90
27779;DHT22;30234;48.090;11.464;2023-04-25T11:46:22;8.00;99.90
27779;DHT22;30234;48.090;11.464;2023-04-25T11:50:23;8.00;99.90
27779;DHT22;30234;48.090;11.464;2023-04-25T11:54:24;8.00;99.90
27779;DHT22;30234;48.090;11.464;2023-04-25T11:58:25;8.30;99.90
27779;DHT22;30234;48.090;11.464;2023-04-25T12:02:27;7.90;99.90
27779;DHT22;30234;48.090;11.464;2023-04-25T12:06:28;7.70;99.90
27779;DHT22;30234;48.090;11.464;2023-04-25T12:10:29;7.70;99.90
27779;DHT22;30234;48.090;11.464;2023-04-25T12:14:32;7.70;99.90
27779;DHT22;30234;48.090;11.464;2023-04-25T12:18:35;7.60;99.90
27779;DHT22;30234;48.090;11.464;2023-04-25T12:22:36;7.90;99.90
27779;DHT22;30234;48.090;11.464;2023-04-25T12:27:04;8.20;99.90
27779;DHT22;30234;48.090;11.464;2023-04-25T12:31:06;8.30;99.90
27779;DHT22;30234;48.090;11.464;2023-04-25T12:35:07;8.50;99.90
27779;DHT22;30234;48.090;11.464;2023-04-25T12:39:10;9.00;99.90
27779;DHT22;30234;48.090;11.464;2023-04-25T12:43:15;9.40;99.90
27779;DHT22;30234;48.090;11.464;2023-04-25T12:47:16;9.20;99.90
27779;DHT22;30234;48.090;11.464;2023-04-25T12:51:17;9.00;99.90
27779;DHT22;30234;48.090;11.464;2023-04-25T12:55:17;9.10;99.90
27779;DHT22;30234;48.090;11.464;2023-04-25T12:59:18;9.40;99.90
27779;DHT22;30234;48.090;11.464;2023-04-25T13:03:20;9.90;99.90
27779;DHT22;30234;48.090;11.464;2023-04-25T13:07:22;10.00;99.90
27779;DHT22;30234;48.090;11.464;2023-04-25T13:11:23;9.90;99.90
27779;DHT22;30234;48.090;11.464;2023-04-25T13:15:24;9.80;99.90
27779;DHT22;30234;48.090;11.464;2023-04-25T13:19:25;9.70;99.90
27779;DHT22;30234;48.090;11.464;2023-04-25T13:23:27;9.70;99.90
27779;DHT22;30234;48.090;11.464;2023-04-25T13:27:28;9.50;99.90
27779;DHT22;30234;48.090;11.464;2023-04-25T13:31:31;9.30;99.90
27779;DHT22;30234;48.090;11.464;2023-04-25T13:35:33;9.30;99.90
27779;DHT22;30234;48.090;11.464;2023-04-25T13:39:34;8.90;99.90
27779;DHT22;30234;48.090;11.464;2023-04-25T13:43:35;8.50;99.90
27779;DHT22;30234;48.090;11.464;2023-04-25T13:47:36;8.00;99.90
27779;DHT22;30234;48.090;11.464;2023-04-25T13:51:37;7.80;99.90
27779;DHT22;30234;48.090;11.464;2023-04-25T13:55:37;8.20;99.90
27779;DHT22;30234;48.090;11.464;2023-04-25T13:59:39;8.90;99.90
27779;DHT22;30234;48.090;11.464;2023-04-25T14:03:41;9.30;99.90
27779;DHT22;30234;48.090;11.464;2023-04-25T14:07:42;9.10;99.90
27779;DHT22;30234;48.090;11.464;2023-04-25T14:11:43;9.50;99.90
27779;DHT22;30234;48.090;11.464;2023-04-25T14:15:44;9.70;99.90
27779;DHT22;30234;48.090;11.464;2023-04-25T14:19:45;9.40;99.90
27779;DHT22;30234;48.090;11.464;2023-04-25T14:23:48;9.60;99.90
27779;DHT22;30234;48.090;11.464;2023-04-25T14:27:49;10.30;99.90
27779;DHT22;30234;48.090;11.464;2023-04-25T14:31:52;11.40;99.90
27779;DHT22;30234;48.090;11.464;2023-04-25T14:35:54;12.10;99.90
27779;DHT22;30234;48.090;11.464;2023-04-25T14:43:13;10.70;99.90
27779;DHT22;30234;48.090;11.464;2023-04-25T14:47:14;10.40;99.90
27779;DHT22;30234;48.090;11.464;2023-04-25T14:51:16;10.10;99.90
27779;DHT22;30234;48.090;11.464;2023-04-25T14:55:16;9.60;99.90
27779;DHT22;30234;48.090;11.464;2023-04-25T14:59:17;9.30;99.90
27779;DHT22;30234;48.090;11.464;2023-04-25T15:03:18;9.20;99.90
27779;DHT22;30234;48.090;11.464;2023-04-25T15:07:19;9.40;99.90
27779;DHT22;30234;48.090;11.464;2023-04-25T15:11:20;9.80;99.90
27779;DHT22;30234;48.090;11.464;2023-04-25T15:15:21;9.90;99.90
27779;DHT22;30234;48.090;11.464;2023-04-25T15:19:23;9.70;99.90
27779;DHT22;30234;48.090;11.464;2023-04-25T15:23:23;9.40;99.90
27779;DHT22;30234;48.090;11.464;2023-04-25T15:27:24;8.90;99.90
27779;DHT22;30234;48.090;11.464;2023-04-25T15:31:27;8.90;99.90
27779;DHT22;30234;48.090;11.464;2023-04-25T15:35:28;8.90;99.90
27779;DHT22;30234;48.090;11.464;2023-04-25T15:39:29;8.90;99.90
27779;DHT22;30234;48.090;11.464;2023-04-25T15:43:30;9.00;99.90
27779;DHT22;30234;48.090;11.464;2023-04-25T15:47:32;9.20;99.90
27779;DHT22;30234;48.090;11.464;2023-04-25T15:51:34;9.30;99.90
27779;DHT22;30234;48.090;11.464;2023-04-25T15:55:35;9.10;99.90
27779;DHT22;30234;48.090;11.464;2023-04-25T15:59:36;8.90;99.90
27779;DHT22;30234;48.090;11.464;2023-04-25T16:03:37;8.70;99.90
27779;DHT22;30234;48.090;11.464;2023-04-25T16:07:39;8.50;99.90
27779;DHT22;30234;48.090;11.464;2023-04-25T16:11:41;8.40;99.90
27779;DHT22;30234;48.090;11.464;2023-04-25T16:15:41;8.20;99.90
27779;DHT22;30234;48.090;11.464;2023-04-25T16:19:42;8.20;99.90
27779;DHT22;30234;48.090;11.464;2023-04-25T16:23:43;8.00;99.90
27779;DHT22;30234;48.090;11.464;2023-04-25T16:27:44;8.10;99.90
27779;DHT22;30234;48.090;11.464;2023-04-25T16:31:45;8.10;99.90
27779;DHT22;30234;48.090;11.464;2023-04-25T16:35:46;8.10;99.90
27779;DHT22;30234;48.090;11.464;2023-04-25T16:39:49;8.10;99.90
27779;DHT22;30234;48.090;11.464;2023-04-25T16:43:50;8.20;99.90
27779;DHT22;30234;48.090;11.464;2023-04-25T16:47:51;8.40;99.90
27779;DHT22;30234;48.090;11.464;2023-04-25T16:51:52;8.50;99.90
27779;DHT22;30234;48.090;11.464;2023-04-25T16:55:53;8.40;99.90
27779;DHT22;30234;48.090;11.464;2023-04-25T16:59:54;8.30;99.90
27779;DHT22;30234;48.090;11.464;2023-04-25T17:03:56;8.10;99.90
27779;DHT22;30234;48.090;11.464;2023-04-25T17:07:56;7.90;99.90
27779;DHT22;30234;48.090;11.464;2023-04-25T17:11:57;7.80;99.90
27779;DHT22;30234;48.090;11.464;2023-04-25T17:15:59;7.70;99.90
27779;DHT22;30234;48.090;11.464;2023-04-25T17:20:00;7.60;99.90
27779;DHT22;30234;48.090;11.464;2023-04-25T17:24:01;7.50;99.90
27779;DHT22;30234;48.090;11.464;2023-04-25T17:28:05;7.40;99.90
27779;DHT22;30234;48.090;11.464;2023-04-25T17:32:06;7.40;99.90
27779;DHT22;30234;48.090;11.464;2023-04-25T17:36:07;7.40;99.90
27779;DHT22;30234;48.090;11.464;2023-04-25T17:40:08;7.50;99.90
27779;DHT22;30234;48.090;11.464;2023-04-25T17:44:12;7.50;99.90
27779;DHT22;30234;48.090;11.464;2023-04-25T17:48:13;7.50;99.90
27779;DHT22;30234;48.090;11.464;2023-04-25T17:52:14;7.50;99.90
27779;DHT22;30234;48.090;11.464;2023-04-25T17:56:16;7.50;99.90
27779;DHT22;30234;48.090;11.464;2023-04-25T18:00:17;7.50;99.90
27779;DHT22;30234;48.090;11.464;2023-04-25T18:04:18;7.50;99.90
27779;DHT22;30234;48.090;11.464;2023-04-25T18:08:19;7.50;99.90
27779;DHT22;30234;48.090;11.464;2023-04-25T18:12:22;7.40;99.90
27779;DHT22;30234;48.090;11.464;2023-04-25T18:16:23;7.40;99.90
27779;DHT22;30234;48.090;11.464;2023-04-25T18:20:24;7.20;99.90
27779;DHT22;30234;48.090;11.464;2023-04-25T18:24:26;7.10;99.90
27779;DHT22;30234;48.090;11.464;2023-04-25T18:28:27;7.10;99.90
27779;DHT22;30234;48.090;11.464;2023-04-25T18:32:29;7.10;99.90
27779;DHT22;30234;48.090;11.464;2023-04-25T18:36:31;6.90;99.90
27779;DHT22;30234;48.090;11.464;2023-04-25T18:40:32;6.70;99.90
27779;DHT22;30234;48.090;11.464;2023-04-25T18:44:34;6.50;99.90
27779;DHT22;30234;48.090;11.464;2023-04-25T18:48:39;6.30;99.90
27779;DHT22;30234;48.090;11.464;2023-04-25T18:52:40;6.20;99.90
27779;DHT22;30234;48.090;11.464;2023-04-25T18:56:41;6.10;99.90
27779;DHT22;30234;48.090;11.464;2023-04-25T19:00:42;6.10;99.90
27779;DHT22;30234;48.090;11.464;2023-04-25T19:04:43;6.00;99.90
27779;DHT22;30234;48.090;11.464;2023-04-25T19:08:44;6.00;99.90
27779;DHT22;30234;48.090;11.464;2023-04-25T19:12:45;6.00;99.90
27779;DHT22;30234;48.090;11.464;2023-04-25T19:16:47;6.00;99.90
27779;DHT22;30234;48.090;11.464;2023-04-25T19:20:48;6.00;99.90
27779;DHT22;30234;48.090;11.464;2023-04-25T19:24:49;5.90;99.90
27779;DHT22;30234;48.090;11.464;2023-04-25T19:29:10;6.10;99.90
27779;DHT22;30234;48.090;11.464;2023-04-25T19:33:13;5.90;99.90
27779;DHT22;30234;48.090;11.464;2023-04-25T19:37:15;5.90;99.90
27779;DHT22;30234;48.090;11.464;2023-04-25T19:41:16;6.00;99.90
27779;DHT22;30234;48.090;11.464;2023-04-25T19:45:17;6.00;99.90
27779;DHT22;30234;48.090;11.464;2023-04-25T19:49:18;6.10;99.90
27779;DHT22;30234;48.090;11.464;2023-04-25T19:53:20;6.00;99.90
27779;DHT22;30234;48.090;11.464;2023-04-25T19:57:21;5.90;99.90
27779;DHT22;30234;48.090;11.464;2023-04-25T20:01:23;5.90;99.90
27779;DHT22;30234;48.090;11.464;2023-04-25T20:05:24;5.70;99.90
27779;DHT22;30234;48.090;11.464;2023-04-25T20:09:25;5.70;99.90
27779;DHT22;30234;48.090;11.464;2023-04-25T20:13:26;5.70;99.90
27779;DHT22;30234;48.090;11.464;2023-04-25T20:17:27;5.70;99.90
27779;DHT22;30234;48.090;11.464;2023-04-25T20:21:28;5.60;99.90
27779;DHT22;30234;48.090;11.464;2023-04-25T20:25:29;5.50;99.90
27779;DHT22;30234;48.090;11.464;2023-04-25T20:29:30;5.60;99.90
27779;DHT22;30234;48.090;11.464;2023-04-25T20:33:31;5.50;99.90
27779;DHT22;30234;48.090;11.464;2023-04-25T20:37:32;5.50;99.90
27779;DHT22;30234;48.090;11.464;2023-04-25T20:41:34;5.40;99.90
27779;DHT22;30234;48.090;11.464;2023-04-25T20:45:34;5.50;99.90
27779;DHT22;30234;48.090;11.464;2023-04-25T20:49:36;5.60;99.90
27779;DHT22;30234;48.090;11.464;2023-04-25T20:53:37;5.60;99.90
27779;DHT22;30234;48.090;11.464;2023-04-25T20:57:38;5.70;99.90
27779;DHT22;30234;48.090;11.464;2023-04-25T21:01:39;5.60;99.90
27779;DHT22;30234;48.090;11.464;2023-04-25T21:05:40;5.60;99.90
27779;DHT22;30234;48.090;11.464;2023-04-25T21:09:41;5.50;99.90
27779;DHT22;30234;48.090;11.464;2023-04-25T21:13:44;5.60;99.90
27779;DHT22;30234;48.090;11.464;2023-04-25T21:17:46;5.60;99.90
27779;DHT22;30234;48.090;11.464;2023-04-25T21:21:47;5.50;99.90
27779;DHT22;30234;48.090;11.464;2023-04-25T21:25:48;5.60;99.90
27779;DHT22;30234;48.090;11.464;2023-04-25T21:29:50;5.60;99.90
27779;DHT22;30234;48.090;11.464;2023-04-25T21:33:52;5.70;99.90
27779;DHT22;30234;48.090;11.464;2023-04-25T21:37:53;5.60;99.90
27779;DHT22;30234;48.090;11.464;2023-04-25T21:41:54;5.60;99.90
27779;DHT22;30234;48.090;11.464;2023-04-25T21:45:55;5.60;99.90
27779;DHT22;30234;48.090;11.464;2023-04-25T21:49:56;5.60;99.90
27779;DHT22;30234;48.090;11.464;2023-04-25T21:53:56;5.50;99.90
27779;DHT22;30234;48.090;11.464;2023-04-25T21:58:00;5.50;99.90
27779;DHT22;30234;48.090;11.464;2023-04-25T22:02:01;5.50;99.90
27779;DHT22;30234;48.090;11.464;2023-04-25T22:06:02;5.50;99.90
27779;DHT22;30234;48.090;11.464;2023-04-25T22:10:03;5.50;99.90
27779;DHT22;30234;48.090;11.464;2023-04-25T22:14:05;5.50;99.90
27779;DHT22;30234;48.090;11.464;2023-04-25T22:18:06;5.70;99.90
27779;DHT22;30234;48.090;11.464;2023-04-25T22:22:07;5.70;99.90
27779;DHT22;30234;48.090;11.464;2023-04-25T22:26:08;5.70;99.90
27779;DHT22;30234;48.090;11.464;2023-04-25T22:30:10;5.70;99.90
27779;DHT22;30234;48.090;11.464;2023-04-25T22:34:14;5.70;99.90
27779;DHT22;30234;48.090;11.464;2023-04-25T22:38:15;5.80;99.90
27779;DHT22;30234;48.090;11.464;2023-04-25T22:42:16;5.70;99.90
27779;DHT22;30234;48.090;11.464;2023-04-25T22:46:18;5.70;99.90
27779;DHT22;30234;48.090;11.464;2023-04-25T22:50:20;5.80;99.90
27779;DHT22;30234;48.090;11.464;2023-04-25T22:54:21;5.80;99.90
27779;DHT22;30234;48.090;11.464;2023-04-25T22:58:22;5.90;99.90
27779;DHT22;30234;48.090;11.464;2023-04-25T23:02:24;5.90;99.90
27779;DHT22;30234;48.090;11.464;2023-04-25T23:06:25;5.80;99.90
27779;DHT22;30234;48.090;11.464;2023-04-25T23:10:27;5.80;99.90
27779;DHT22;30234;48.090;11.464;2023-04-25T23:14:27;5.70;99.90
27779;DHT22;30234;48.090;11.464;2023-04-25T23:18:28;5.80;99.90
27779;DHT22;30234;48.090;11.464;2023-04-25T23:22:29;5.80;99.90
27779;DHT22;30234;48.090;11.464;2023-04-25T23:26:30;5.80;99.90
27779;DHT22;30234;48.090;11.464;2023-04-25T23:30:31;5.90;99.90
27779;DHT22;30234;48.090;11.464;2023-04-25T23:34:32;5.80;99.90
27779;DHT22;30234;48.090;11.464;2023-04-25T23:38:33;5.90;99.90
27779;DHT22;30234;48.090;11.464;2023-04-25T23:42:35;5.90;99.90
27779;DHT22;30234;48.090;11.464;2023-04-25T23:46:36;6.00;99.90
27779;DHT22;30234;48.090;11.464;2023-04-25T23:50:37;5.90;99.90
27779;DHT22;30234;48.090;11.464;2023-04-25T23:54:38;5.80;99.90
27779;DHT22;30234;48.090;11.464;2023-04-25T23:58:39;5.80;99.90
